Station Historical Data
Daily Summary for March 26, 2012 Units:  Both    English   Metric
« Previous Day
Next Day »
Daily Weekly Monthly Yearly Custom
  High: Low: Average:
Temperature: 75.5 °F /  24.2 °C 52.8 °F /  11.6 °C 63.8 °F /  17.7 °C
Dew Point: 58.3 °F /  14.6 °C 50.0 °F /  10 °C 53.3 °F /  11.8 °C
Humidity: 94% 44% 71%
Wind Speed: 11.0mph /  17.7km/h - 3.5mph /  5.6km/h
Wind Gust: 17.0mph /  27.4km/h - -
Wind- - SSE
Pressure: 30.10 in /  1019.2 hPa 29.99 in /  1015.5 hPa -
Precipitation: 0.00 in /  0 mm    
Historical Graphs
 
 
Tabular Data for March 26, 2012
Time Temperature Dew Point Pressure Wind Wind Speed Wind Gust Humidity Rainfall Rate (Hourly) Conditions
00:00 58.6 °F /  14.8 °C 53.5 °F /  11.9 °C 30.00in /  1015.8hPa North 2.0mph /  3.2km/h 3.0mph /  4.8km/h 83% 0.00in /  0mm
00:01 58.6 °F /  14.8 °C 53.5 °F /  11.9 °C 30.00in /  1015.8hPa North 2.0mph /  3.2km/h 3.0mph /  4.8km/h 83% 0.00in /  0mm
00:03 58.5 °F /  14.7 °C 53.4 °F /  11.9 °C 30.00in /  1015.8hPa NNE 2.0mph /  3.2km/h 4.0mph /  6.4km/h 83% 0.00in /  0mm
00:08 58.4 °F /  14.7 °C 53.3 °F /  11.8 °C 30.00in /  1015.8hPa NNW 2.0mph /  3.2km/h 3.0mph /  4.8km/h 83% 0.00in /  0mm
00:13 58.2 °F /  14.6 °C 53.1 °F /  11.7 °C 30.00in /  1015.8hPa North 3.0mph /  4.8km/h 4.0mph /  6.4km/h 83% 0.00in /  0mm
00:18 58.0 °F /  14.4 °C 53.2 °F /  11.8 °C 30.00in /  1015.8hPa NNE 3.0mph /  4.8km/h 4.0mph /  6.4km/h 84% 0.00in /  0mm
00:23 58.1 °F /  14.5 °C 53.3 °F /  11.8 °C 30.00in /  1015.8hPa NNW 3.0mph /  4.8km/h 5.0mph /  8km/h 84% 0.00in /  0mm
00:28 58.1 °F /  14.5 °C 53.3 °F /  11.8 °C 30.00in /  1015.8hPa North 3.0mph /  4.8km/h 4.0mph /  6.4km/h 84% 0.00in /  0mm
00:33 58.0 °F /  14.4 °C 53.2 °F /  11.8 °C 30.00in /  1015.8hPa North 2.0mph /  3.2km/h 3.0mph /  4.8km/h 84% 0.00in /  0mm
00:38 57.9 °F /  14.4 °C 53.1 °F /  11.7 °C 30.00in /  1015.8hPa North 3.0mph /  4.8km/h 3.0mph /  4.8km/h 84% 0.00in /  0mm
00:43 57.7 °F /  14.3 °C 52.9 °F /  11.6 °C 30.00in /  1015.8hPa North 4.0mph /  6.4km/h 4.0mph /  6.4km/h 84% 0.00in /  0mm
00:48 57.5 °F /  14.2 °C 53.0 °F /  11.7 °C 29.99in /  1015.5hPa NNW 3.0mph /  4.8km/h 4.0mph /  6.4km/h 85% 0.00in /  0mm
00:53 57.4 °F /  14.1 °C 52.9 °F /  11.6 °C 29.99in /  1015.5hPa NNW 2.0mph /  3.2km/h 4.0mph /  6.4km/h 85% 0.00in /  0mm
00:58 57.4 °F /  14.1 °C 52.9 °F /  11.6 °C 29.99in /  1015.5hPa NNW 3.0mph /  4.8km/h 4.0mph /  6.4km/h 85% 0.00in /  0mm
01:03 57.4 °F /  14.1 °C 52.9 °F /  11.6 °C 29.99in /  1015.5hPa North 2.0mph /  3.2km/h 3.0mph /  4.8km/h 85% 0.00in /  0mm
01:08 57.5 °F /  14.2 °C 53.0 °F /  11.7 °C 29.99in /  1015.5hPa NNW 4.0mph /  6.4km/h 4.0mph /  6.4km/h 85% 0.00in /  0mm
01:13 57.5 °F /  14.2 °C 53.0 °F /  11.7 °C 29.99in /  1015.5hPa NNW 4.0mph /  6.4km/h 5.0mph /  8km/h 85% 0.00in /  0mm
01:18 57.6 °F /  14.2 °C 53.1 °F /  11.7 °C 30.00in /  1015.8hPa NNW 4.0mph /  6.4km/h 5.0mph /  8km/h 85% 0.00in /  0mm
01:23 57.5 °F /  14.2 °C 53.0 °F /  11.7 °C 29.99in /  1015.5hPa NNW 3.0mph /  4.8km/h 5.0mph /  8km/h 85% 0.00in /  0mm
01:28 57.6 °F /  14.2 °C 53.1 °F /  11.7 °C 30.00in /  1015.8hPa NW 3.0mph /  4.8km/h 4.0mph /  6.4km/h 85% 0.00in /  0mm
01:33 57.6 °F /  14.2 °C 53.1 °F /  11.7 °C 30.00in /  1015.8hPa NNW 2.0mph /  3.2km/h 4.0mph /  6.4km/h 85% 0.00in /  0mm
01:38 57.7 °F /  14.3 °C 53.2 °F /  11.8 °C 30.00in /  1015.8hPa NNW 1.0mph /  1.6km/h 4.0mph /  6.4km/h 85% 0.00in /  0mm
01:43 57.6 °F /  14.2 °C 53.1 °F /  11.7 °C 30.00in /  1015.8hPa North 2.0mph /  3.2km/h 3.0mph /  4.8km/h 85% 0.00in /  0mm
01:48 57.4 °F /  14.1 °C 52.9 °F /  11.6 °C 30.00in /  1015.8hPa Calm   2.0mph /  3.2km/h 85% 0.00in /  0mm
01:53 57.1 °F /  13.9 °C 53.0 °F /  11.7 °C 30.00in /  1015.8hPa Calm   1.0mph /  1.6km/h 86% 0.00in /  0mm
01:58 56.8 °F /  13.8 °C 52.7 °F /  11.5 °C 29.99in /  1015.5hPa Calm   1.0mph /  1.6km/h 86% 0.00in /  0mm
02:03 56.6 °F /  13.7 °C 52.8 °F /  11.6 °C 30.00in /  1015.8hPa NNE 1.0mph /  1.6km/h 1.0mph /  1.6km/h 87% 0.00in /  0mm
02:08 56.5 °F /  13.6 °C 52.7 °F /  11.5 °C 30.00in /  1015.8hPa Calm   1.0mph /  1.6km/h 87% 0.00in /  0mm
02:13 56.2 °F /  13.4 °C 52.4 °F /  11.3 °C 30.00in /  1015.8hPa Calm     87% 0.00in /  0mm
02:18 55.7 °F /  13.2 °C 52.2 °F /  11.2 °C 30.00in /  1015.8hPa Calm     88% 0.00in /  0mm
02:23 55.4 °F /  13 °C 52.2 °F /  11.2 °C 30.00in /  1015.8hPa Calm     89% 0.00in /  0mm
02:28 55.4 °F /  13 °C 52.5 °F /  11.4 °C 30.00in /  1015.8hPa Calm   1.0mph /  1.6km/h 90% 0.00in /  0mm
02:33 55.6 °F /  13.1 °C 52.7 °F /  11.5 °C 30.00in /  1015.8hPa Calm   1.0mph /  1.6km/h 90% 0.00in /  0mm
02:39 55.6 °F /  13.1 °C 52.4 °F /  11.3 °C 30.00in /  1015.8hPa Calm   1.0mph /  1.6km/h 89% 0.00in /  0mm
02:44 55.5 °F /  13.1 °C 52.3 °F /  11.3 °C 30.00in /  1015.8hPa Calm     89% 0.00in /  0mm
02:49 55.2 °F /  12.9 °C 52.3 °F /  11.3 °C 30.00in /  1015.8hPa Calm     90% 0.00in /  0mm
02:54 55.0 °F /  12.8 °C 52.1 °F /  11.2 °C 30.00in /  1015.8hPa Calm   1.0mph /  1.6km/h 90% 0.00in /  0mm
02:59 55.0 °F /  12.8 °C 52.4 °F /  11.3 °C 30.00in /  1015.8hPa Calm   1.0mph /  1.6km/h 91% 0.00in /  0mm
03:04 55.0 °F /  12.8 °C 52.1 °F /  11.2 °C 30.00in /  1015.8hPa North 1.0mph /  1.6km/h 1.0mph /  1.6km/h 90% 0.00in /  0mm
03:09 55.0 °F /  12.8 °C 52.4 °F /  11.3 °C 30.00in /  1015.8hPa North 1.0mph /  1.6km/h 1.0mph /  1.6km/h 91% 0.00in /  0mm
03:14 54.9 °F /  12.7 °C 52.3 °F /  11.3 °C 30.00in /  1015.8hPa North 1.0mph /  1.6km/h 1.0mph /  1.6km/h 91% 0.00in /  0mm
03:19 54.5 °F /  12.5 °C 51.9 °F /  11.1 °C 30.00in /  1015.8hPa Calm   1.0mph /  1.6km/h 91% 0.00in /  0mm
03:24 54.3 °F /  12.4 °C 51.7 °F /  10.9 °C 30.00in /  1015.8hPa North 1.0mph /  1.6km/h 1.0mph /  1.6km/h 91% 0.00in /  0mm
03:29 54.1 °F /  12.3 °C 51.5 °F /  10.8 °C 30.00in /  1015.8hPa Calm   1.0mph /  1.6km/h 91% 0.00in /  0mm
03:34 53.9 °F /  12.2 °C 51.6 °F /  10.9 °C 30.00in /  1015.8hPa North 1.0mph /  1.6km/h 1.0mph /  1.6km/h 92% 0.00in /  0mm
03:39 54.1 °F /  12.3 °C 51.8 °F /  11 °C 30.00in /  1015.8hPa Calm   2.0mph /  3.2km/h 92% 0.00in /  0mm
03:44 54.1 °F /  12.3 °C 51.8 °F /  11 °C 29.99in /  1015.5hPa Calm     92% 0.00in /  0mm
03:49 54.2 °F /  12.3 °C 51.9 °F /  11.1 °C 29.99in /  1015.5hPa NNE 1.0mph /  1.6km/h 1.0mph /  1.6km/h 92% 0.00in /  0mm
03:54 54.3 °F /  12.4 °C 52.0 °F /  11.1 °C 29.99in /  1015.5hPa North 1.0mph /  1.6km/h 2.0mph /  3.2km/h 92% 0.00in /  0mm
03:59 54.3 °F /  12.4 °C 52.0 °F /  11.1 °C 29.99in /  1015.5hPa NNW 1.0mph /  1.6km/h 2.0mph /  3.2km/h 92% 0.00in /  0mm
04:04 54.3 °F /  12.4 °C 52.0 °F /  11.1 °C 29.99in /  1015.5hPa NNW 1.0mph /  1.6km/h 1.0mph /  1.6km/h 92% 0.00in /  0mm
04:09 54.2 °F /  12.3 °C 51.9 °F /  11.1 °C 30.00in /  1015.8hPa Calm   1.0mph /  1.6km/h 92% 0.00in /  0mm
04:14 53.9 °F /  12.2 °C 51.6 °F /  10.9 °C 30.00in /  1015.8hPa North 1.0mph /  1.6km/h 1.0mph /  1.6km/h 92% 0.00in /  0mm
04:19 53.9 °F /  12.2 °C 51.6 °F /  10.9 °C 30.00in /  1015.8hPa NNW 1.0mph /  1.6km/h 3.0mph /  4.8km/h 92% 0.00in /  0mm
04:24 53.9 °F /  12.2 °C 51.6 °F /  10.9 °C 29.99in /  1015.5hPa North 1.0mph /  1.6km/h 3.0mph /  4.8km/h 92% 0.00in /  0mm
04:29 53.8 °F /  12.1 °C 51.5 °F /  10.8 °C 30.00in /  1015.8hPa NNW 1.0mph /  1.6km/h 2.0mph /  3.2km/h 92% 0.00in /  0mm
04:34 53.7 °F /  12.1 °C 51.4 °F /  10.8 °C 30.00in /  1015.8hPa NNW 1.0mph /  1.6km/h 2.0mph /  3.2km/h 92% 0.00in /  0mm
04:39 53.3 °F /  11.8 °C 51.0 °F /  10.6 °C 30.00in /  1015.8hPa NNW 1.0mph /  1.6km/h 1.0mph /  1.6km/h 92% 0.00in /  0mm
04:44 53.1 °F /  11.7 °C 51.1 °F /  10.6 °C 30.00in /  1015.8hPa NNW 1.0mph /  1.6km/h 1.0mph /  1.6km/h 93% 0.00in /  0mm
04:50 53.2 °F /  11.8 °C 51.2 °F /  10.7 °C 30.00in /  1015.8hPa NNW 1.0mph /  1.6km/h 1.0mph /  1.6km/h 93% 0.00in /  0mm
04:55 53.1 °F /  11.7 °C 51.1 °F /  10.6 °C 30.00in /  1015.8hPa NNW 1.0mph /  1.6km/h 1.0mph /  1.6km/h 93% 0.00in /  0mm
05:00 52.9 °F /  11.6 °C 50.9 °F /  10.5 °C 30.00in /  1015.8hPa NNW 1.0mph /  1.6km/h 1.0mph /  1.6km/h 93% 0.00in /  0mm
05:05 52.9 °F /  11.6 °C 50.9 °F /  10.5 °C 30.00in /  1015.8hPa NNW 1.0mph /  1.6km/h 1.0mph /  1.6km/h 93% 0.00in /  0mm
05:10 52.8 °F /  11.6 °C 50.8 °F /  10.4 °C 30.00in /  1015.8hPa NNW 1.0mph /  1.6km/h 1.0mph /  1.6km/h 93% 0.00in /  0mm
05:15 52.8 °F /  11.6 °C 51.1 °F /  10.6 °C 30.00in /  1015.8hPa NNE 1.0mph /  1.6km/h 2.0mph /  3.2km/h 94% 0.00in /  0mm
05:20 52.9 °F /  11.6 °C 51.2 °F /  10.7 °C 29.99in /  1015.5hPa NNE 1.0mph /  1.6km/h 1.0mph /  1.6km/h 94% 0.00in /  0mm
05:25 53.0 °F /  11.7 °C 51.3 °F /  10.7 °C 29.99in /  1015.5hPa NNW 2.0mph /  3.2km/h 2.0mph /  3.2km/h 94% 0.00in /  0mm
05:30 53.2 °F /  11.8 °C 51.5 °F /  10.8 °C 29.99in /  1015.5hPa NNW 1.0mph /  1.6km/h 2.0mph /  3.2km/h 94% 0.00in /  0mm
05:35 53.2 °F /  11.8 °C 51.5 °F /  10.8 °C 30.00in /  1015.8hPa North 2.0mph /  3.2km/h 2.0mph /  3.2km/h 94% 0.00in /  0mm
05:40 53.3 °F /  11.8 °C 51.6 °F /  10.9 °C 30.00in /  1015.8hPa North 2.0mph /  3.2km/h 2.0mph /  3.2km/h 94% 0.00in /  0mm
05:45 53.3 °F /  11.8 °C 51.6 °F /  10.9 °C 29.99in /  1015.5hPa North 2.0mph /  3.2km/h 3.0mph /  4.8km/h 94% 0.00in /  0mm
05:50 53.3 °F /  11.8 °C 51.6 °F /  10.9 °C 30.00in /  1015.8hPa NNW 2.0mph /  3.2km/h 3.0mph /  4.8km/h 94% 0.00in /  0mm
05:55 53.3 °F /  11.8 °C 51.6 °F /  10.9 °C 29.99in /  1015.5hPa North 1.0mph /  1.6km/h 2.0mph /  3.2km/h 94% 0.00in /  0mm
06:00 53.3 °F /  11.8 °C 51.6 °F /  10.9 °C 29.99in /  1015.5hPa North 1.0mph /  1.6km/h 2.0mph /  3.2km/h 94% 0.00in /  0mm
06:05 53.2 °F /  11.8 °C 51.5 °F /  10.8 °C 29.99in /  1015.5hPa North 2.0mph /  3.2km/h 2.0mph /  3.2km/h 94% 0.00in /  0mm
06:06 53.2 °F /  11.8 °C 51.5 °F /  10.8 °C 29.99in /  1015.5hPa North 2.0mph /  3.2km/h 2.0mph /  3.2km/h 94% 0.00in /  0mm
06:11 53.2 °F /  11.8 °C 51.5 °F /  10.8 °C 29.99in /  1015.5hPa NNW 2.0mph /  3.2km/h 3.0mph /  4.8km/h 94% 0.00in /  0mm
06:16 53.2 °F /  11.8 °C 51.5 °F /  10.8 °C 30.00in /  1015.8hPa NNW 2.0mph /  3.2km/h 4.0mph /  6.4km/h 94% 0.00in /  0mm
06:21 53.1 °F /  11.7 °C 51.4 °F /  10.8 °C 30.00in /  1015.8hPa North 4.0mph /  6.4km/h 4.0mph /  6.4km/h 94% 0.00in /  0mm
06:26 53.0 °F /  11.7 °C 51.3 °F /  10.7 °C 30.00in /  1015.8hPa NNW 4.0mph /  6.4km/h 4.0mph /  6.4km/h 94% 0.00in /  0mm
06:31 52.9 °F /  11.6 °C 51.2 °F /  10.7 °C 30.01in /  1016.1hPa NNW 2.0mph /  3.2km/h 5.0mph /  8km/h 94% 0.00in /  0mm
06:36 52.8 °F /  11.6 °C 51.1 °F /  10.6 °C 30.01in /  1016.1hPa NNW 2.0mph /  3.2km/h 4.0mph /  6.4km/h 94% 0.00in /  0mm
06:41 52.8 °F /  11.6 °C 51.1 °F /  10.6 °C 30.01in /  1016.1hPa NNW 2.0mph /  3.2km/h 3.0mph /  4.8km/h 94% 0.00in /  0mm
06:46 52.9 °F /  11.6 °C 51.2 °F /  10.7 °C 30.01in /  1016.1hPa NNW 2.0mph /  3.2km/h 3.0mph /  4.8km/h 94% 0.00in /  0mm
06:51 52.9 °F /  11.6 °C 51.2 °F /  10.7 °C 30.01in /  1016.1hPa North 1.0mph /  1.6km/h 2.0mph /  3.2km/h 94% 0.00in /  0mm
06:56 53.0 °F /  11.7 °C 51.3 °F /  10.7 °C 30.01in /  1016.1hPa NNE 1.0mph /  1.6km/h 2.0mph /  3.2km/h 94% 0.00in /  0mm
07:01 53.0 °F /  11.7 °C 51.3 °F /  10.7 °C 30.02in /  1016.5hPa NNW 2.0mph /  3.2km/h 3.0mph /  4.8km/h 94% 0.00in /  0mm
07:06 53.1 °F /  11.7 °C 51.4 °F /  10.8 °C 30.02in /  1016.5hPa NNW 2.0mph /  3.2km/h 3.0mph /  4.8km/h 94% 0.00in /  0mm
07:11 53.1 °F /  11.7 °C 51.4 °F /  10.8 °C 30.02in /  1016.5hPa North 1.0mph /  1.6km/h 2.0mph /  3.2km/h 94% 0.00in /  0mm
07:16 53.0 °F /  11.7 °C 51.3 °F /  10.7 °C 30.02in /  1016.5hPa North 2.0mph /  3.2km/h 2.0mph /  3.2km/h 94% 0.00in /  0mm
07:21 53.1 °F /  11.7 °C 51.4 °F /  10.8 °C 30.02in /  1016.5hPa North 1.0mph /  1.6km/h 2.0mph /  3.2km/h 94% 0.00in /  0mm
07:26 53.2 °F /  11.8 °C 51.5 °F /  10.8 °C 30.02in /  1016.5hPa NNE 2.0mph /  3.2km/h 2.0mph /  3.2km/h 94% 0.00in /  0mm
07:32 53.2 °F /  11.8 °C 51.5 °F /  10.8 °C 30.02in /  1016.5hPa North 2.0mph /  3.2km/h 3.0mph /  4.8km/h 94% 0.00in /  0mm
07:37 53.2 °F /  11.8 °C 51.5 °F /  10.8 °C 30.03in /  1016.8hPa North 2.0mph /  3.2km/h 4.0mph /  6.4km/h 94% 0.00in /  0mm
07:42 53.0 °F /  11.7 °C 51.3 °F /  10.7 °C 30.03in /  1016.8hPa North 2.0mph /  3.2km/h 3.0mph /  4.8km/h 94% 0.00in /  0mm
07:47 53.0 °F /  11.7 °C 51.3 °F /  10.7 °C 30.03in /  1016.8hPa North 2.0mph /  3.2km/h 4.0mph /  6.4km/h 94% 0.00in /  0mm
07:52 52.9 °F /  11.6 °C 51.2 °F /  10.7 °C 30.03in /  1016.8hPa NNW 2.0mph /  3.2km/h 4.0mph /  6.4km/h 94% 0.00in /  0mm
07:57 52.8 °F /  11.6 °C 51.1 °F /  10.6 °C 30.03in /  1016.8hPa NNW 3.0mph /  4.8km/h 3.0mph /  4.8km/h 94% 0.00in /  0mm
08:02 52.8 °F /  11.6 °C 51.1 °F /  10.6 °C 30.04in /  1017.2hPa North 2.0mph /  3.2km/h 4.0mph /  6.4km/h 94% 0.00in /  0mm
08:07 52.9 °F /  11.6 °C 51.2 °F /  10.7 °C 30.04in /  1017.2hPa North 2.0mph /  3.2km/h 4.0mph /  6.4km/h 94% 0.00in /  0mm
08:12 53.2 °F /  11.8 °C 51.5 °F /  10.8 °C 30.04in /  1017.2hPa North 2.0mph /  3.2km/h 3.0mph /  4.8km/h 94% 0.00in /  0mm
08:17 53.5 °F /  11.9 °C 51.8 °F /  11 °C 30.04in /  1017.2hPa NNW 1.0mph /  1.6km/h 3.0mph /  4.8km/h 94% 0.00in /  0mm
08:22 53.9 °F /  12.2 °C 52.2 °F /  11.2 °C 30.05in /  1017.5hPa North 3.0mph /  4.8km/h 4.0mph /  6.4km/h 94% 0.00in /  0mm
08:27 54.3 °F /  12.4 °C 52.6 °F /  11.4 °C 30.05in /  1017.5hPa North 2.0mph /  3.2km/h 3.0mph /  4.8km/h 94% 0.00in /  0mm
08:32 54.7 °F /  12.6 °C 52.7 °F /  11.5 °C 30.05in /  1017.5hPa North 3.0mph /  4.8km/h 4.0mph /  6.4km/h 93% 0.00in /  0mm
08:37 55.0 °F /  12.8 °C 53.0 °F /  11.7 °C 30.05in /  1017.5hPa NNW 3.0mph /  4.8km/h 4.0mph /  6.4km/h 93% 0.00in /  0mm
08:42 55.5 °F /  13.1 °C 53.5 °F /  11.9 °C 30.05in /  1017.5hPa NNW 4.0mph /  6.4km/h 6.0mph /  9.7km/h 93% 0.00in /  0mm
08:47 55.9 °F /  13.3 °C 53.6 °F /  12 °C 30.05in /  1017.5hPa NNW 3.0mph /  4.8km/h 5.0mph /  8km/h 92% 0.00in /  0mm
08:52 56.3 °F /  13.5 °C 54.0 °F /  12.2 °C 30.06in /  1017.8hPa NNW 4.0mph /  6.4km/h 6.0mph /  9.7km/h 92% 0.00in /  0mm
08:57 56.7 °F /  13.7 °C 54.4 °F /  12.4 °C 30.06in /  1017.8hPa NW 4.0mph /  6.4km/h 8.0mph /  12.9km/h 92% 0.00in /  0mm
09:02 57.2 °F /  14 °C 54.6 °F /  12.6 °C 30.06in /  1017.8hPa North 5.0mph /  8km/h 7.0mph /  11.3km/h 91% 0.00in /  0mm
09:07 57.6 °F /  14.2 °C 55.0 °F /  12.8 °C 30.06in /  1017.8hPa North 4.0mph /  6.4km/h 6.0mph /  9.7km/h 91% 0.00in /  0mm
09:12 58.1 °F /  14.5 °C 55.2 °F /  12.9 °C 30.06in /  1017.8hPa NNE 8.0mph /  12.9km/h 8.0mph /  12.9km/h 90% 0.00in /  0mm
09:17 58.6 °F /  14.8 °C 55.7 °F /  13.2 °C 30.07in /  1018.2hPa North 4.0mph /  6.4km/h 6.0mph /  9.7km/h 90% 0.00in /  0mm
09:22 59.0 °F /  15 °C 55.8 °F /  13.2 °C 30.07in /  1018.2hPa NNE 4.0mph /  6.4km/h 7.0mph /  11.3km/h 89% 0.00in /  0mm
09:27 59.3 °F /  15.2 °C 56.1 °F /  13.4 °C 30.07in /  1018.2hPa NNE 3.0mph /  4.8km/h 5.0mph /  8km/h 89% 0.00in /  0mm
09:32 59.7 °F /  15.4 °C 55.8 °F /  13.2 °C 30.07in /  1018.2hPa NNE 3.0mph /  4.8km/h 6.0mph /  9.7km/h 87% 0.00in /  0mm
09:37 60.3 °F /  15.7 °C 56.4 °F /  13.6 °C 30.07in /  1018.2hPa NNE 5.0mph /  8km/h 7.0mph /  11.3km/h 87% 0.00in /  0mm
09:42 60.7 °F /  15.9 °C 56.5 °F /  13.6 °C 30.08in /  1018.5hPa NE 3.0mph /  4.8km/h 9.0mph /  14.5km/h 86% 0.00in /  0mm
09:47 61.0 °F /  16.1 °C 56.8 °F /  13.8 °C 30.08in /  1018.5hPa NNE 5.0mph /  8km/h 7.0mph /  11.3km/h 86% 0.00in /  0mm
09:53 61.6 °F /  16.4 °C 57.4 °F /  14.1 °C 30.08in /  1018.5hPa North 3.0mph /  4.8km/h 5.0mph /  8km/h 86% 0.00in /  0mm
09:58 62.1 °F /  16.7 °C 57.5 °F /  14.2 °C 30.08in /  1018.5hPa NNE 3.0mph /  4.8km/h 6.0mph /  9.7km/h 85% 0.00in /  0mm
10:03 62.6 °F /  17 °C 57.4 °F /  14.1 °C 30.08in /  1018.5hPa NNW 4.0mph /  6.4km/h 6.0mph /  9.7km/h 83% 0.00in /  0mm
10:08 63.0 °F /  17.2 °C 57.4 °F /  14.1 °C 30.08in /  1018.5hPa NE 6.0mph /  9.7km/h 7.0mph /  11.3km/h 82% 0.00in /  0mm
10:13 63.3 °F /  17.4 °C 57.0 °F /  13.9 °C 30.09in /  1018.8hPa NNE 5.0mph /  8km/h 10.0mph /  16.1km/h 80% 0.00in /  0mm
10:18 63.9 °F /  17.7 °C 56.9 °F /  13.8 °C 30.09in /  1018.8hPa NNE 8.0mph /  12.9km/h 12.0mph /  19.3km/h 78% 0.00in /  0mm
10:23 64.4 °F /  18 °C 57.4 °F /  14.1 °C 30.09in /  1018.8hPa North 8.0mph /  12.9km/h 9.0mph /  14.5km/h 78% 0.00in /  0mm
10:28 64.8 °F /  18.2 °C 57.4 °F /  14.1 °C 30.09in /  1018.8hPa NE 9.0mph /  14.5km/h 12.0mph /  19.3km/h 77% 0.00in /  0mm
10:33 65.2 °F /  18.4 °C 56.7 °F /  13.7 °C 30.09in /  1018.8hPa NE 8.0mph /  12.9km/h 9.0mph /  14.5km/h 74% 0.00in /  0mm
10:38 65.5 °F /  18.6 °C 57.7 °F /  14.3 °C 30.09in /  1018.8hPa NNE 5.0mph /  8km/h 8.0mph /  12.9km/h 76% 0.00in /  0mm
10:43 66.2 °F /  19 °C 56.9 °F /  13.8 °C 30.09in /  1018.8hPa NE 6.0mph /  9.7km/h 7.0mph /  11.3km/h 72% 0.00in /  0mm
10:48 66.6 °F /  19.2 °C 57.3 °F /  14.1 °C 30.09in /  1018.8hPa NNE 9.0mph /  14.5km/h 9.0mph /  14.5km/h 72% 0.00in /  0mm
10:53 66.6 °F /  19.2 °C 56.1 °F /  13.4 °C 30.09in /  1018.8hPa NE 9.0mph /  14.5km/h 12.0mph /  19.3km/h 69% 0.00in /  0mm
10:58 66.7 °F /  19.3 °C 56.6 °F /  13.7 °C 30.09in /  1018.8hPa NE 10.0mph /  16.1km/h 10.0mph /  16.1km/h 70% 0.00in /  0mm
11:03 66.8 °F /  19.3 °C 56.7 °F /  13.7 °C 30.09in /  1018.8hPa NE 10.0mph /  16.1km/h 13.0mph /  20.9km/h 70% 0.00in /  0mm
11:08 66.6 °F /  19.2 °C 55.7 °F /  13.2 °C 30.09in /  1018.8hPa NE 9.0mph /  14.5km/h 15.0mph /  24.1km/h 68% 0.00in /  0mm
11:13 66.8 °F /  19.3 °C 55.1 °F /  12.8 °C 30.09in /  1018.8hPa ENE 9.0mph /  14.5km/h 12.0mph /  19.3km/h 66% 0.00in /  0mm
11:18 67.0 °F /  19.4 °C 55.3 °F /  12.9 °C 30.10in /  1019.2hPa NNE 5.0mph /  8km/h 17.0mph /  27.4km/h 66% 0.00in /  0mm
11:23 67.1 °F /  19.5 °C 55.4 °F /  13 °C 30.10in /  1019.2hPa NNE 8.0mph /  12.9km/h 11.0mph /  17.7km/h 66% 0.00in /  0mm
11:28 67.4 °F /  19.7 °C 55.7 °F /  13.2 °C 30.10in /  1019.2hPa NNE 11.0mph /  17.7km/h 12.0mph /  19.3km/h 66% 0.00in /  0mm
11:34 67.6 °F /  19.8 °C 55.4 °F /  13 °C 30.10in /  1019.2hPa NE 5.0mph /  8km/h 10.0mph /  16.1km/h 65% 0.00in /  0mm
11:39 67.8 °F /  19.9 °C 55.2 °F /  12.9 °C 30.10in /  1019.2hPa NE 5.0mph /  8km/h 12.0mph /  19.3km/h 64% 0.00in /  0mm
11:44 68.0 °F /  20 °C 55.8 °F /  13.2 °C 30.10in /  1019.2hPa NNE 8.0mph /  12.9km/h 12.0mph /  19.3km/h 65% 0.00in /  0mm
11:49 68.2 °F /  20.1 °C 55.1 °F /  12.8 °C 30.09in /  1018.8hPa North 10.0mph /  16.1km/h 11.0mph /  17.7km/h 63% 0.00in /  0mm
11:54 68.3 °F /  20.2 °C 55.7 °F /  13.2 °C 30.09in /  1018.8hPa East 9.0mph /  14.5km/h 12.0mph /  19.3km/h 64% 0.00in /  0mm
11:59 68.6 °F /  20.3 °C 56.0 °F /  13.3 °C 30.09in /  1018.8hPa NNE 6.0mph /  9.7km/h 10.0mph /  16.1km/h 64% 0.00in /  0mm
12:05 68.6 °F /  20.3 °C 55.1 °F /  12.8 °C 30.09in /  1018.8hPa NNE 7.0mph /  11.3km/h 12.0mph /  19.3km/h 62% 0.00in /  0mm
12:10 68.3 °F /  20.2 °C 55.7 °F /  13.2 °C 30.09in /  1018.8hPa NE 7.0mph /  11.3km/h 8.0mph /  12.9km/h 64% 0.00in /  0mm
12:15 68.9 °F /  20.5 °C 56.2 °F /  13.4 °C 30.09in /  1018.8hPa NNW 3.0mph /  4.8km/h 7.0mph /  11.3km/h 64% 0.00in /  0mm
12:20 69.3 °F /  20.7 °C 55.7 °F /  13.2 °C 30.09in /  1018.8hPa NE 3.0mph /  4.8km/h 8.0mph /  12.9km/h 62% 0.00in /  0mm
12:25 69.3 °F /  20.7 °C 57.5 °F /  14.2 °C 30.09in /  1018.8hPa NNE 8.0mph /  12.9km/h 9.0mph /  14.5km/h 66% 0.00in /  0mm
12:30 68.9 °F /  20.5 °C 55.4 °F /  13 °C 30.09in /  1018.8hPa NNE 6.0mph /  9.7km/h 12.0mph /  19.3km/h 62% 0.00in /  0mm
12:35 68.9 °F /  20.5 °C 56.2 °F /  13.4 °C 30.09in /  1018.8hPa NNW 4.0mph /  6.4km/h 10.0mph /  16.1km/h 64% 0.00in /  0mm
12:40 69.3 °F /  20.7 °C 56.6 °F /  13.7 °C 30.09in /  1018.8hPa NE 11.0mph /  17.7km/h 11.0mph /  17.7km/h 64% 0.00in /  0mm
12:45 69.6 °F /  20.9 °C 56.5 °F /  13.6 °C 30.09in /  1018.8hPa NE 6.0mph /  9.7km/h 11.0mph /  17.7km/h 63% 0.00in /  0mm
12:50 70.0 °F /  21.1 °C 57.7 °F /  14.3 °C 30.09in /  1018.8hPa North 5.0mph /  8km/h 6.0mph /  9.7km/h 65% 0.00in /  0mm
12:55 70.2 °F /  21.2 °C 56.1 °F /  13.4 °C 30.09in /  1018.8hPa North 11.0mph /  17.7km/h 11.0mph /  17.7km/h 61% 0.00in /  0mm
13:00 70.0 °F /  21.1 °C 57.3 °F /  14.1 °C 30.09in /  1018.8hPa North 7.0mph /  11.3km/h 11.0mph /  17.7km/h 64% 0.00in /  0mm
13:05 69.5 °F /  20.8 °C 57.2 °F /  14 °C 30.09in /  1018.8hPa NW 7.0mph /  11.3km/h 10.0mph /  16.1km/h 65% 0.00in /  0mm
13:06 69.5 °F /  20.8 °C 57.2 °F /  14 °C 30.09in /  1018.8hPa North 7.0mph /  11.3km/h 10.0mph /  16.1km/h 65% 0.00in /  0mm
13:11 69.8 °F /  21 °C 56.7 °F /  13.7 °C 30.09in /  1018.8hPa NE 6.0mph /  9.7km/h 9.0mph /  14.5km/h 63% 0.00in /  0mm
13:16 70.5 °F /  21.4 °C 56.4 °F /  13.6 °C 30.09in /  1018.8hPa ENE 5.0mph /  8km/h 10.0mph /  16.1km/h 61% 0.00in /  0mm
13:21 71.0 °F /  21.7 °C 57.3 °F /  14.1 °C 30.08in /  1018.5hPa NE 3.0mph /  4.8km/h 9.0mph /  14.5km/h 62% 0.00in /  0mm
13:26 71.3 °F /  21.8 °C 56.2 °F /  13.4 °C 30.08in /  1018.5hPa NE 8.0mph /  12.9km/h 14.0mph /  22.5km/h 59% 0.00in /  0mm
13:31 71.1 °F /  21.7 °C 56.5 °F /  13.6 °C 30.08in /  1018.5hPa North 4.0mph /  6.4km/h 9.0mph /  14.5km/h 60% 0.00in /  0mm
13:36 71.6 °F /  22 °C 57.0 °F /  13.9 °C 30.08in /  1018.5hPa NNE 7.0mph /  11.3km/h 9.0mph /  14.5km/h 60% 0.00in /  0mm
13:41 71.4 °F /  21.9 °C 56.8 °F /  13.8 °C 30.08in /  1018.5hPa NNW 5.0mph /  8km/h 11.0mph /  17.7km/h 60% 0.00in /  0mm
13:46 71.2 °F /  21.8 °C 57.1 °F /  13.9 °C 30.08in /  1018.5hPa NNE 5.0mph /  8km/h 9.0mph /  14.5km/h 61% 0.00in /  0mm
13:51 71.6 °F /  22 °C 58.3 °F /  14.6 °C 30.08in /  1018.5hPa NNE 8.0mph /  12.9km/h 8.0mph /  12.9km/h 63% 0.00in /  0mm
13:56 71.8 °F /  22.1 °C 55.8 °F /  13.2 °C 30.07in /  1018.2hPa NW 5.0mph /  8km/h 8.0mph /  12.9km/h 57% 0.00in /  0mm
14:01 72.0 °F /  22.2 °C 57.4 °F /  14.1 °C 30.08in /  1018.5hPa NNW 6.0mph /  9.7km/h 9.0mph /  14.5km/h 60% 0.00in /  0mm
14:06 71.7 °F /  22.1 °C 57.1 °F /  13.9 °C 30.07in /  1018.2hPa NNW 5.0mph /  8km/h 9.0mph /  14.5km/h 60% 0.00in /  0mm
14:11 72.1 °F /  22.3 °C 56.5 °F /  13.6 °C 30.07in /  1018.2hPa NW 8.0mph /  12.9km/h 12.0mph /  19.3km/h 58% 0.00in /  0mm
14:16 71.6 °F /  22 °C 56.5 °F /  13.6 °C 30.07in /  1018.2hPa NNW 4.0mph /  6.4km/h 7.0mph /  11.3km/h 59% 0.00in /  0mm
14:21 72.4 °F /  22.4 °C 57.3 °F /  14.1 °C 30.07in /  1018.2hPa NNE 9.0mph /  14.5km/h 10.0mph /  16.1km/h 59% 0.00in /  0mm
14:26 72.3 °F /  22.4 °C 55.7 °F /  13.2 °C 30.07in /  1018.2hPa NNE 3.0mph /  4.8km/h 7.0mph /  11.3km/h 56% 0.00in /  0mm
14:31 72.7 °F /  22.6 °C 57.6 °F /  14.2 °C 30.07in /  1018.2hPa East 1.0mph /  1.6km/h 4.0mph /  6.4km/h 59% 0.00in /  0mm
14:37 73.1 °F /  22.8 °C 57.0 °F /  13.9 °C 30.06in /  1017.8hPa North 6.0mph /  9.7km/h 7.0mph /  11.3km/h 57% 0.00in /  0mm
14:42 73.2 °F /  22.9 °C 56.1 °F /  13.4 °C 30.06in /  1017.8hPa NE 2.0mph /  3.2km/h 6.0mph /  9.7km/h 55% 0.00in /  0mm
14:47 73.3 °F /  22.9 °C 57.7 °F /  14.3 °C 30.06in /  1017.8hPa NW 5.0mph /  8km/h 10.0mph /  16.1km/h 58% 0.00in /  0mm
14:52 73.4 °F /  23 °C 55.8 °F /  13.2 °C 30.06in /  1017.8hPa NNE 6.0mph /  9.7km/h 12.0mph /  19.3km/h 54% 0.00in /  0mm
14:57 73.5 °F /  23.1 °C 55.9 °F /  13.3 °C 30.06in /  1017.8hPa North 4.0mph /  6.4km/h 8.0mph /  12.9km/h 54% 0.00in /  0mm
15:02 73.9 °F /  23.3 °C 58.2 °F /  14.6 °C 30.06in /  1017.8hPa North 7.0mph /  11.3km/h 8.0mph /  12.9km/h 58% 0.00in /  0mm
15:07 74.1 °F /  23.4 °C 57.4 °F /  14.1 °C 30.06in /  1017.8hPa North 7.0mph /  11.3km/h 10.0mph /  16.1km/h 56% 0.00in /  0mm
15:12 73.5 °F /  23.1 °C 54.3 °F /  12.4 °C 30.06in /  1017.8hPa NE 4.0mph /  6.4km/h 9.0mph /  14.5km/h 51% 0.00in /  0mm
15:17 73.6 °F /  23.1 °C 57.0 °F /  13.9 °C 30.05in /  1017.5hPa NNW 5.0mph /  8km/h 5.0mph /  8km/h 56% 0.00in /  0mm
15:22 73.9 °F /  23.3 °C 56.7 °F /  13.7 °C 30.05in /  1017.5hPa North 3.0mph /  4.8km/h 8.0mph /  12.9km/h 55% 0.00in /  0mm
15:27 74.0 °F /  23.3 °C 56.3 °F /  13.5 °C 30.05in /  1017.5hPa NNW 7.0mph /  11.3km/h 9.0mph /  14.5km/h 54% 0.00in /  0mm
15:32 74.2 °F /  23.4 °C 56.0 °F /  13.3 °C 30.05in /  1017.5hPa NNE 4.0mph /  6.4km/h 8.0mph /  12.9km/h 53% 0.00in /  0mm
15:37 74.3 °F /  23.5 °C 56.1 °F /  13.4 °C 30.04in /  1017.2hPa NNE 7.0mph /  11.3km/h 10.0mph /  16.1km/h 53% 0.00in /  0mm
15:43 73.9 °F /  23.3 °C 55.7 °F /  13.2 °C 30.04in /  1017.2hPa NNE 8.0mph /  12.9km/h 8.0mph /  12.9km/h 53% 0.00in /  0mm
15:48 73.7 °F /  23.2 °C 56.0 °F /  13.3 °C 30.04in /  1017.2hPa NNE 5.0mph /  8km/h 9.0mph /  14.5km/h 54% 0.00in /  0mm
15:53 73.8 °F /  23.2 °C 55.6 °F /  13.1 °C 30.04in /  1017.2hPa NNW 7.0mph /  11.3km/h 9.0mph /  14.5km/h 53% 0.00in /  0mm
15:58 74.2 °F /  23.4 °C 56.0 °F /  13.3 °C 30.03in /  1016.8hPa WNW 1.0mph /  1.6km/h 7.0mph /  11.3km/h 53% 0.00in /  0mm
16:03 74.8 °F /  23.8 °C 56.0 °F /  13.3 °C 30.03in /  1016.8hPa NNE 5.0mph /  8km/h 10.0mph /  16.1km/h 52% 0.00in /  0mm
16:08 74.6 °F /  23.7 °C 55.8 °F /  13.2 °C 30.03in /  1016.8hPa NNE 4.0mph /  6.4km/h 9.0mph /  14.5km/h 52% 0.00in /  0mm
16:13 74.6 °F /  23.7 °C 55.8 °F /  13.2 °C 30.03in /  1016.8hPa North 9.0mph /  14.5km/h 11.0mph /  17.7km/h 52% 0.00in /  0mm
16:18 74.4 °F /  23.6 °C 54.6 °F /  12.6 °C 30.03in /  1016.8hPa NW 8.0mph /  12.9km/h 12.0mph /  19.3km/h 50% 0.00in /  0mm
16:23 74.7 °F /  23.7 °C 54.3 °F /  12.4 °C 30.03in /  1016.8hPa NNE 5.0mph /  8km/h 7.0mph /  11.3km/h 49% 0.00in /  0mm
16:28 74.8 °F /  23.8 °C 54.4 °F /  12.4 °C 30.03in /  1016.8hPa North 4.0mph /  6.4km/h 10.0mph /  16.1km/h 49% 0.00in /  0mm
16:33 74.8 °F /  23.8 °C 54.9 °F /  12.7 °C 30.03in /  1016.8hPa NE 8.0mph /  12.9km/h 9.0mph /  14.5km/h 50% 0.00in /  0mm
16:38 74.8 °F /  23.8 °C 55.5 °F /  13.1 °C 30.03in /  1016.8hPa NNW 4.0mph /  6.4km/h 8.0mph /  12.9km/h 51% 0.00in /  0mm
16:43 74.8 °F /  23.8 °C 53.2 °F /  11.8 °C 30.03in /  1016.8hPa NNW 4.0mph /  6.4km/h 10.0mph /  16.1km/h 47% 0.00in /  0mm
16:44 74.8 °F /  23.8 °C 53.8 °F /  12.1 °C 30.03in /  1016.8hPa NNE 9.0mph /  14.5km/h 10.0mph /  16.1km/h 48% 0.00in /  0mm
16:49 75.0 °F /  23.9 °C 54.6 °F /  12.6 °C 30.02in /  1016.5hPa North 3.0mph /  4.8km/h 7.0mph /  11.3km/h 49% 0.00in /  0mm
16:54 75.0 °F /  23.9 °C 55.7 °F /  13.2 °C 30.02in /  1016.5hPa NNE 4.0mph /  6.4km/h 9.0mph /  14.5km/h 51% 0.00in /  0mm
16:59 75.2 °F /  24 °C 54.8 °F /  12.7 °C 30.02in /  1016.5hPa NNW 4.0mph /  6.4km/h 9.0mph /  14.5km/h 49% 0.00in /  0mm
17:04 75.1 °F /  23.9 °C 54.1 °F /  12.3 °C 30.02in /  1016.5hPa NW 9.0mph /  14.5km/h 12.0mph /  19.3km/h 48% 0.00in /  0mm
17:09 75.1 °F /  23.9 °C 55.2 °F /  12.9 °C 30.02in /  1016.5hPa NNE 5.0mph /  8km/h 11.0mph /  17.7km/h 50% 0.00in /  0mm
17:14 75.1 °F /  23.9 °C 55.2 °F /  12.9 °C 30.01in /  1016.1hPa North 3.0mph /  4.8km/h 7.0mph /  11.3km/h 50% 0.00in /  0mm
17:19 75.2 °F /  24 °C 54.8 °F /  12.7 °C 30.01in /  1016.1hPa North 7.0mph /  11.3km/h 11.0mph /  17.7km/h 49% 0.00in /  0mm
17:25 75.2 °F /  24 °C 54.8 °F /  12.7 °C 30.01in /  1016.1hPa NNW 3.0mph /  4.8km/h 8.0mph /  12.9km/h 49% 0.00in /  0mm
17:30 75.5 °F /  24.2 °C 55.6 °F /  13.1 °C 30.01in /  1016.1hPa North 7.0mph /  11.3km/h 10.0mph /  16.1km/h 50% 0.00in /  0mm
17:35 75.2 °F /  24 °C 53.6 °F /  12 °C 30.01in /  1016.1hPa NNE 5.0mph /  8km/h 8.0mph /  12.9km/h 47% 0.00in /  0mm
17:40 75.1 °F /  23.9 °C 54.1 °F /  12.3 °C 30.01in /  1016.1hPa NE 7.0mph /  11.3km/h 10.0mph /  16.1km/h 48% 0.00in /  0mm
17:45 75.3 °F /  24.1 °C 53.7 °F /  12.1 °C 30.01in /  1016.1hPa North 7.0mph /  11.3km/h 10.0mph /  16.1km/h 47% 0.00in /  0mm
17:50 75.0 °F /  23.9 °C 53.4 °F /  11.9 °C 30.01in /  1016.1hPa NNE 4.0mph /  6.4km/h 8.0mph /  12.9km/h 47% 0.00in /  0mm
17:55 75.1 °F /  23.9 °C 54.1 °F /  12.3 °C 30.01in /  1016.1hPa North 8.0mph /  12.9km/h 9.0mph /  14.5km/h 48% 0.00in /  0mm
18:00 75.0 °F /  23.9 °C 52.8 °F /  11.6 °C 30.01in /  1016.1hPa NNW 7.0mph /  11.3km/h 9.0mph /  14.5km/h 46% 0.00in /  0mm
18:05 74.9 °F /  23.8 °C 52.2 °F /  11.2 °C 30.01in /  1016.1hPa WNW 8.0mph /  12.9km/h 11.0mph /  17.7km/h 45% 0.00in /  0mm
18:10 74.8 °F /  23.8 °C 52.7 °F /  11.5 °C 30.01in /  1016.1hPa NNW 7.0mph /  11.3km/h 9.0mph /  14.5km/h 46% 0.00in /  0mm
18:15 74.7 °F /  23.7 °C 52.6 °F /  11.4 °C 30.01in /  1016.1hPa NNW 4.0mph /  6.4km/h 10.0mph /  16.1km/h 46% 0.00in /  0mm
18:16 74.7 °F /  23.7 °C 52.6 °F /  11.4 °C 30.01in /  1016.1hPa NNW 6.0mph /  9.7km/h 10.0mph /  16.1km/h 46% 0.00in /  0mm
18:21 74.8 °F /  23.8 °C 54.9 °F /  12.7 °C 30.01in /  1016.1hPa NW 4.0mph /  6.4km/h 5.0mph /  8km/h 50% 0.00in /  0mm
18:26 74.9 °F /  23.8 °C 54.5 °F /  12.5 °C 30.01in /  1016.1hPa NNW 6.0mph /  9.7km/h 8.0mph /  12.9km/h 49% 0.00in /  0mm
18:31 74.7 °F /  23.7 °C 51.4 °F /  10.8 °C 30.01in /  1016.1hPa NNW 5.0mph /  8km/h 9.0mph /  14.5km/h 44% 0.00in /  0mm
18:36 74.5 °F /  23.6 °C 51.2 °F /  10.7 °C 30.00in /  1015.8hPa North 5.0mph /  8km/h 7.0mph /  11.3km/h 44% 0.00in /  0mm
18:41 74.4 °F /  23.6 °C 52.9 °F /  11.6 °C 30.00in /  1015.8hPa North 1.0mph /  1.6km/h 7.0mph /  11.3km/h 47% 0.00in /  0mm
18:46 74.5 °F /  23.6 °C 53.5 °F /  11.9 °C 30.00in /  1015.8hPa NNE 3.0mph /  4.8km/h 4.0mph /  6.4km/h 48% 0.00in /  0mm
18:51 74.4 °F /  23.6 °C 51.7 °F /  10.9 °C 30.01in /  1016.1hPa NNE 4.0mph /  6.4km/h 6.0mph /  9.7km/h 45% 0.00in /  0mm
18:56 74.2 °F /  23.4 °C 51.5 °F /  10.8 °C 30.00in /  1015.8hPa NNE 2.0mph /  3.2km/h 5.0mph /  8km/h 45% 0.00in /  0mm
19:01 74.0 °F /  23.3 °C 51.9 °F /  11.1 °C 30.00in /  1015.8hPa NNE 5.0mph /  8km/h 5.0mph /  8km/h 46% 0.00in /  0mm
19:06 73.9 °F /  23.3 °C 51.8 °F /  11 °C 30.01in /  1016.1hPa NNE 4.0mph /  6.4km/h 7.0mph /  11.3km/h 46% 0.00in /  0mm
19:11 73.8 °F /  23.2 °C 51.2 °F /  10.7 °C 30.01in /  1016.1hPa NE 9.0mph /  14.5km/h 9.0mph /  14.5km/h 45% 0.00in /  0mm
19:16 73.6 °F /  23.1 °C 52.2 °F /  11.2 °C 30.01in /  1016.1hPa North 4.0mph /  6.4km/h 5.0mph /  8km/h 47% 0.00in /  0mm
19:21 73.3 °F /  22.9 °C 52.5 °F /  11.4 °C 30.01in /  1016.1hPa NNE 2.0mph /  3.2km/h 6.0mph /  9.7km/h 48% 0.00in /  0mm
19:26 73.2 °F /  22.9 °C 52.4 °F /  11.3 °C 30.01in /  1016.1hPa NE 3.0mph /  4.8km/h 6.0mph /  9.7km/h 48% 0.00in /  0mm
19:31 73.0 °F /  22.8 °C 52.7 °F /  11.5 °C 30.01in /  1016.1hPa NNE 2.0mph /  3.2km/h 3.0mph /  4.8km/h 49% 0.00in /  0mm
19:36 72.8 °F /  22.7 °C 52.5 °F /  11.4 °C 30.01in /  1016.1hPa NNE 1.0mph /  1.6km/h 2.0mph /  3.2km/h 49% 0.00in /  0mm
19:42 72.6 °F /  22.6 °C 52.9 °F /  11.6 °C 30.02in /  1016.5hPa NNE 1.0mph /  1.6km/h 3.0mph /  4.8km/h 50% 0.00in /  0mm
19:47 72.1 °F /  22.3 °C 53.0 °F /  11.7 °C 30.01in /  1016.1hPa NNE 2.0mph /  3.2km/h 3.0mph /  4.8km/h 51% 0.00in /  0mm
19:52 71.4 °F /  21.9 °C 52.3 °F /  11.3 °C 30.01in /  1016.1hPa NNE 3.0mph /  4.8km/h 4.0mph /  6.4km/h 51% 0.00in /  0mm
19:57 70.8 °F /  21.6 °C 52.3 °F /  11.3 °C 30.02in /  1016.5hPa NNE 1.0mph /  1.6km/h 3.0mph /  4.8km/h 52% 0.00in /  0mm
20:02 70.3 °F /  21.3 °C 51.9 °F /  11.1 °C 30.02in /  1016.5hPa NNE 1.0mph /  1.6km/h 3.0mph /  4.8km/h 52% 0.00in /  0mm
20:07 70.0 °F /  21.1 °C 51.6 °F /  10.9 °C 30.02in /  1016.5hPa NNE 4.0mph /  6.4km/h 5.0mph /  8km/h 52% 0.00in /  0mm
20:12 69.7 °F /  20.9 °C 51.8 °F /  11 °C 30.02in /  1016.5hPa North 2.0mph /  3.2km/h 2.0mph /  3.2km/h 53% 0.00in /  0mm
20:17 69.3 °F /  20.7 °C 51.5 °F /  10.8 °C 30.02in /  1016.5hPa NE 3.0mph /  4.8km/h 3.0mph /  4.8km/h 53% 0.00in /  0mm
20:22 69.1 °F /  20.6 °C 51.3 °F /  10.7 °C 30.02in /  1016.5hPa NNE 2.0mph /  3.2km/h 3.0mph /  4.8km/h 53% 0.00in /  0mm
20:27 68.9 °F /  20.5 °C 50.6 °F /  10.3 °C 30.02in /  1016.5hPa NE 1.0mph /  1.6km/h 3.0mph /  4.8km/h 52% 0.00in /  0mm
20:32 68.7 °F /  20.4 °C 50.9 °F /  10.5 °C 30.02in /  1016.5hPa NE 1.0mph /  1.6km/h 3.0mph /  4.8km/h 53% 0.00in /  0mm
20:37 68.4 °F /  20.2 °C 50.6 °F /  10.3 °C 30.02in /  1016.5hPa NNE 2.0mph /  3.2km/h 3.0mph /  4.8km/h 53% 0.00in /  0mm
20:42 68.1 °F /  20.1 °C 50.8 °F /  10.4 °C 30.02in /  1016.5hPa NNE 1.0mph /  1.6km/h 2.0mph /  3.2km/h 54% 0.00in /  0mm
20:47 67.9 °F /  19.9 °C 50.7 °F /  10.4 °C 30.02in /  1016.5hPa NNE 2.0mph /  3.2km/h 2.0mph /  3.2km/h 54% 0.00in /  0mm
20:52 67.7 °F /  19.8 °C 50.5 °F /  10.3 °C 30.02in /  1016.5hPa NNE 2.0mph /  3.2km/h 2.0mph /  3.2km/h 54% 0.00in /  0mm
20:57 67.5 °F /  19.7 °C 50.3 °F /  10.2 °C 30.03in /  1016.8hPa NNE 2.0mph /  3.2km/h 2.0mph /  3.2km/h 54% 0.00in /  0mm
21:02 67.3 °F /  19.6 °C 50.1 °F /  10.1 °C 30.03in /  1016.8hPa NNE 1.0mph /  1.6km/h 2.0mph /  3.2km/h 54% 0.00in /  0mm
21:07 67.1 °F /  19.5 °C 50.4 °F /  10.2 °C 30.03in /  1016.8hPa NNE 2.0mph /  3.2km/h 2.0mph /  3.2km/h 55% 0.00in /  0mm
21:12 67.0 °F /  19.4 °C 50.3 °F /  10.2 °C 30.03in /  1016.8hPa NE 2.0mph /  3.2km/h 3.0mph /  4.8km/h 55% 0.00in /  0mm
21:17 67.0 °F /  19.4 °C 50.3 °F /  10.2 °C 30.03in /  1016.8hPa NNE 2.0mph /  3.2km/h 3.0mph /  4.8km/h 55% 0.00in /  0mm
21:22 66.8 °F /  19.3 °C 50.1 °F /  10.1 °C 30.03in /  1016.8hPa NNE 2.0mph /  3.2km/h 3.0mph /  4.8km/h 55% 0.00in /  0mm
21:27 66.5 °F /  19.2 °C 50.3 °F /  10.2 °C 30.04in /  1017.2hPa NE 1.0mph /  1.6km/h 2.0mph /  3.2km/h 56% 0.00in /  0mm
21:33 66.2 °F /  19 °C 50.5 °F /  10.3 °C 30.04in /  1017.2hPa NE 2.0mph /  3.2km/h 2.0mph /  3.2km/h 57% 0.00in /  0mm
21:38 66.0 °F /  18.9 °C 50.3 °F /  10.2 °C 30.04in /  1017.2hPa NNE 2.0mph /  3.2km/h 3.0mph /  4.8km/h 57% 0.00in /  0mm
21:43 65.8 °F /  18.8 °C 50.6 °F /  10.3 °C 30.04in /  1017.2hPa NNE 1.0mph /  1.6km/h 3.0mph /  4.8km/h 58% 0.00in /  0mm
21:48 65.6 °F /  18.7 °C 50.4 °F /  10.2 °C 30.05in /  1017.5hPa North 1.0mph /  1.6km/h 2.0mph /  3.2km/h 58% 0.00in /  0mm
21:53 65.5 °F /  18.6 °C 50.3 °F /  10.2 °C 30.05in /  1017.5hPa NNE 1.0mph /  1.6km/h 2.0mph /  3.2km/h 58% 0.00in /  0mm
21:58 65.3 °F /  18.5 °C 50.6 °F /  10.3 °C 30.05in /  1017.5hPa NNE 1.0mph /  1.6km/h 3.0mph /  4.8km/h 59% 0.00in /  0mm
22:03 65.2 °F /  18.4 °C 50.5 °F /  10.3 °C 30.05in /  1017.5hPa NNE 2.0mph /  3.2km/h 3.0mph /  4.8km/h 59% 0.00in /  0mm
22:08 65.2 °F /  18.4 °C 50.5 °F /  10.3 °C 30.05in /  1017.5hPa NNE 2.0mph /  3.2km/h 3.0mph /  4.8km/h 59% 0.00in /  0mm
22:13 65.1 °F /  18.4 °C 50.4 °F /  10.2 °C 30.06in /  1017.8hPa NNE 2.0mph /  3.2km/h 3.0mph /  4.8km/h 59% 0.00in /  0mm
22:18 64.9 °F /  18.3 °C 50.7 °F /  10.4 °C 30.06in /  1017.8hPa NNE 2.0mph /  3.2km/h 3.0mph /  4.8km/h 60% 0.00in /  0mm
22:23 64.8 °F /  18.2 °C 50.6 °F /  10.3 °C 30.06in /  1017.8hPa NNE 2.0mph /  3.2km/h 3.0mph /  4.8km/h 60% 0.00in /  0mm
22:28 64.7 °F /  18.2 °C 50.5 °F /  10.3 °C 30.06in /  1017.8hPa NNE 2.0mph /  3.2km/h 3.0mph /  4.8km/h 60% 0.00in /  0mm
22:33 64.5 °F /  18.1 °C 50.8 °F /  10.4 °C 30.06in /  1017.8hPa NNE 2.0mph /  3.2km/h 3.0mph /  4.8km/h 61% 0.00in /  0mm
22:38 64.3 °F /  17.9 °C 50.6 °F /  10.3 °C 30.06in /  1017.8hPa NNE 2.0mph /  3.2km/h 3.0mph /  4.8km/h 61% 0.00in /  0mm
22:43 64.0 °F /  17.8 °C 50.7 °F /  10.4 °C 30.06in /  1017.8hPa NNE 2.0mph /  3.2km/h 2.0mph /  3.2km/h 62% 0.00in /  0mm
22:48 63.8 °F /  17.7 °C 50.5 °F /  10.3 °C 30.06in /  1017.8hPa NNE 1.0mph /  1.6km/h 3.0mph /  4.8km/h 62% 0.00in /  0mm
22:53 63.6 °F /  17.6 °C 50.8 °F /  10.4 °C 30.06in /  1017.8hPa NNE 1.0mph /  1.6km/h 4.0mph /  6.4km/h 63% 0.00in /  0mm
22:58 63.4 °F /  17.4 °C 50.6 °F /  10.3 °C 30.07in /  1018.2hPa NNE 2.0mph /  3.2km/h 3.0mph /  4.8km/h 63% 0.00in /  0mm
23:03 63.2 °F /  17.3 °C 50.4 °F /  10.2 °C 30.06in /  1017.8hPa North 2.0mph /  3.2km/h 2.0mph /  3.2km/h 63% 0.00in /  0mm
23:08 63.2 °F /  17.3 °C 50.4 °F /  10.2 °C 30.07in /  1018.2hPa NNE 2.0mph /  3.2km/h 2.0mph /  3.2km/h 63% 0.00in /  0mm
23:13 63.0 °F /  17.2 °C 50.7 °F /  10.4 °C 30.07in /  1018.2hPa NE 2.0mph /  3.2km/h 2.0mph /  3.2km/h 64% 0.00in /  0mm
23:18 62.8 °F /  17.1 °C 50.5 °F /  10.3 °C 30.07in /  1018.2hPa NNE 1.0mph /  1.6km/h 3.0mph /  4.8km/h 64% 0.00in /  0mm
23:23 62.6 °F /  17 °C 50.3 °F /  10.2 °C 30.07in /  1018.2hPa NE 2.0mph /  3.2km/h 3.0mph /  4.8km/h 64% 0.00in /  0mm
23:28 62.5 °F /  16.9 °C 50.6 °F /  10.3 °C 30.07in /  1018.2hPa NNE 1.0mph /  1.6km/h 2.0mph /  3.2km/h 65% 0.00in /  0mm
23:33 62.4 °F /  16.9 °C 50.5 °F /  10.3 °C 30.07in /  1018.2hPa NNE 3.0mph /  4.8km/h 4.0mph /  6.4km/h 65% 0.00in /  0mm
23:38 62.2 °F /  16.8 °C 50.3 °F /  10.2 °C 30.07in /  1018.2hPa NNE 2.0mph /  3.2km/h 4.0mph /  6.4km/h 65% 0.00in /  0mm
23:43 62.1 °F /  16.7 °C 50.2 °F /  10.1 °C 30.07in /  1018.2hPa NNE 2.0mph /  3.2km/h 4.0mph /  6.4km/h 65% 0.00in /  0mm
23:48 62.0 °F /  16.7 °C 50.1 °F /  10.1 °C 30.07in /  1018.2hPa NE 3.0mph /  4.8km/h 5.0mph /  8km/h 65% 0.00in /  0mm
23:54 62.4 °F /  16.9 °C 50.1 °F /  10.1 °C 30.07in /  1018.2hPa NE 4.0mph /  6.4km/h 6.0mph /  9.7km/h 64% 0.00in /  0mm
23:59 62.3 °F /  16.8 °C 50.0 °F /  10 °C 30.07in /  1018.2hPa ENE 4.0mph /  6.4km/h 6.0mph /  9.7km/h 64% 0.00in /  0mm
Compliments of Weather Underground